Time;durP1;ratioP1;P1;durP2;ratioP2;P2;SDS_P1;SDS_P2;PMS_P1;PMS_P2;Temp;Humidity;BMP_temperature;BMP_pressure;BME280_temperature;BME280_humidity;BME280_pressure;Samples;Min_cycle;Max_cycle;Signal;HPM_P1;HPM_P2
2023/08/12 00:02:12;;;;;;;0.00;0.00;;;19.50;86.40;;;;;;5018727;28;20073;-68
2023/08/12 00:04:37;;;;;;;0.00;0.00;;;19.50;86.50;;;;;;5017433;28;20144;-68
2023/08/12 00:07:03;;;;;;;0.00;0.00;;;19.50;86.50;;;;;;5025011;28;20099;-68
2023/08/12 00:09:28;;;;;;;0.00;0.00;;;19.50;86.50;;;;;;5023111;28;20042;-67
2023/08/12 00:11:54;;;;;;;0.00;0.00;;;19.50;86.60;;;;;;5017871;28;20384;-69
2023/08/12 00:14:19;;;;;;;0.00;0.00;;;19.50;86.50;;;;;;5019533;28;20499;-68
2023/08/12 00:16:45;;;;;;;0.00;0.00;;;19.40;86.40;;;;;;5019426;28;20502;-68
2023/08/12 00:19:10;;;;;;;0.00;0.00;;;19.40;86.40;;;;;;5017866;28;20128;-67
2023/08/12 00:21:36;;;;;;;0.00;0.00;;;19.40;86.40;;;;;;5017412;28;20042;-68
2023/08/12 00:24:02;;;;;;;0.00;0.00;;;19.30;86.50;;;;;;5022723;28;20033;-68
2023/08/12 00:26:28;;;;;;;0.00;0.00;;;19.40;86.50;;;;;;5019611;28;20495;-68
2023/08/12 00:28:53;;;;;;;0.00;0.00;;;19.30;86.60;;;;;;5017855;28;20068;-68
2023/08/12 00:31:19;;;;;;;0.00;0.00;;;19.30;86.60;;;;;;5011468;28;20068;-68
2023/08/12 00:33:44;;;;;;;0.00;0.00;;;19.30;86.60;;;;;;5022290;28;20045;-68
2023/08/12 00:36:10;;;;;;;0.00;0.00;;;19.30;86.80;;;;;;5023992;28;20046;-68
2023/08/12 00:38:35;;;;;;;0.00;0.00;;;19.30;86.80;;;;;;5021576;28;20045;-68
2023/08/12 00:41:01;;;;;;;0.00;0.00;;;19.30;86.70;;;;;;5020051;28;20037;-65
2023/08/12 00:43:26;;;;;;;0.00;0.00;;;19.30;86.70;;;;;;5023002;28;20096;-65
2023/08/12 00:45:52;;;;;;;0.00;0.00;;;19.30;86.90;;;;;;5024355;28;20045;-65
2023/08/12 00:48:18;;;;;;;0.00;0.00;;;19.20;86.90;;;;;;5024529;28;20074;-66
2023/08/12 00:50:45;;;;;;;0.00;0.00;;;19.30;86.90;;;;;;5015225;28;20112;-65
2023/08/12 00:53:12;;;;;;;0.00;0.00;;;19.20;86.90;;;;;;5017604;28;20050;-66
2023/08/12 00:55:37;;;;;;;0.00;0.00;;;19.20;86.90;;;;;;5020858;28;20140;-65
2023/08/12 00:58:04;;;;;;;0.00;0.00;;;19.20;86.80;;;;;;5022309;28;20125;-67
2023/08/12 01:00:31;;;;;;;0.00;0.00;;;19.10;86.90;;;;;;5017853;28;20088;-68
2023/08/12 01:02:57;;;;;;;0.00;0.00;;;19.10;87.00;;;;;;5018026;28;20051;-68
2023/08/12 01:05:22;;;;;;;0.00;0.00;;;19.10;86.90;;;;;;5021167;28;20487;-68
2023/08/12 01:07:48;;;;;;;0.00;0.00;;;19.10;87.00;;;;;;5023889;28;20038;-68
2023/08/12 01:10:16;;;;;;;0.00;0.00;;;19.10;87.10;;;;;;5022489;28;20471;-68
2023/08/12 01:12:59;;;;;;;0.00;0.00;;;19.10;87.10;;;;;;5018291;28;20073;-68
2023/08/12 01:15:26;;;;;;;0.00;0.00;;;19.10;87.10;;;;;;5023750;28;20041;-68
2023/08/12 01:17:53;;;;;;;0.00;0.00;;;19.10;87.10;;;;;;5016779;28;20453;-68
2023/08/12 01:20:26;;;;;;;0.00;0.00;;;19.00;87.10;;;;;;5021547;28;20422;-68
2023/08/12 01:22:58;;;;;;;0.00;0.00;;;19.00;87.10;;;;;;5017022;28;20120;-67
2023/08/12 01:25:25;;;;;;;0.00;0.00;;;19.00;87.10;;;;;;5021084;28;20072;-68
2023/08/12 01:27:50;;;;;;;0.00;0.00;;;19.00;87.20;;;;;;5019780;28;20045;-68
2023/08/12 01:30:18;;;;;;;0.00;0.00;;;19.00;87.20;;;;;;5017201;28;20513;-68
2023/08/12 01:33:04;;;;;;;0.00;0.00;;;19.00;87.10;;;;;;5021901;28;20049;-68
2023/08/12 01:35:35;;;;;;;0.00;0.00;;;18.90;87.10;;;;;;5023616;28;20048;-68
2023/08/12 01:38:03;;;;;;;0.00;0.00;;;19.00;87.10;;;;;;5017855;28;20053;-68
2023/08/12 01:40:31;;;;;;;0.00;0.00;;;18.90;87.10;;;;;;5016774;28;20510;-68
2023/08/12 01:42:56;;;;;;;0.00;0.00;;;18.90;87.10;;;;;;5016212;28;20052;-68
2023/08/12 01:45:23;;;;;;;0.00;0.00;;;18.90;87.10;;;;;;5023519;28;20038;-68
2023/08/12 01:47:50;;;;;;;0.00;0.00;;;18.90;87.30;;;;;;5021701;28;20563;-68
2023/08/12 01:50:16;;;;;;;0.00;0.00;;;18.90;87.20;;;;;;5019938;28;20049;-68
2023/08/12 01:52:42;;;;;;;0.00;0.00;;;18.90;87.40;;;;;;5022271;28;20050;-68
2023/08/12 01:55:08;;;;;;;0.00;0.00;;;18.90;87.40;;;;;;5022269;28;20410;-68
2023/08/12 01:57:34;;;;;;;0.00;0.00;;;19.00;87.40;;;;;;5016436;28;20068;-68
2023/08/12 02:00:01;;;;;;;0.00;0.00;;;19.00;87.60;;;;;;5019746;28;20045;-68
2023/08/12 02:02:26;;;;;;;0.00;0.00;;;18.90;87.50;;;;;;5018663;28;20056;-69
2023/08/12 02:04:52;;;;;;;0.00;0.00;;;19.00;87.50;;;;;;5022841;28;20050;-68
2023/08/12 02:07:17;;;;;;;0.00;0.00;;;19.00;87.60;;;;;;5018033;28;20038;-68
2023/08/12 02:09:43;;;;;;;0.00;0.00;;;19.00;87.60;;;;;;5018834;28;20049;-68
2023/08/12 02:12:08;;;;;;;0.00;0.00;;;19.00;87.70;;;;;;5016371;28;20049;-68
2023/08/12 02:14:36;;;;;;;0.00;0.00;;;19.00;87.80;;;;;;5017263;28;20052;-68
2023/08/12 02:17:02;;;;;;;0.00;0.00;;;19.00;87.70;;;;;;5023008;28;20054;-68
2023/08/12 02:19:27;;;;;;;0.00;0.00;;;19.10;87.70;;;;;;5010061;28;20049;-68
2023/08/12 02:21:53;;;;;;;0.00;0.00;;;19.10;87.60;;;;;;5010798;28;20069;-68
2023/08/12 02:24:18;;;;;;;0.00;0.00;;;19.10;87.70;;;;;;5010639;28;20046;-68
2023/08/12 02:26:44;;;;;;;0.00;0.00;;;19.10;87.70;;;;;;5010396;28;20042;-68
2023/08/12 02:29:09;;;;;;;0.00;0.00;;;19.10;87.80;;;;;;5009876;28;20079;-68
2023/08/12 02:31:35;;;;;;;0.00;0.00;;;19.10;87.80;;;;;;5009869;28;20133;-68
2023/08/12 02:34:00;;;;;;;0.00;0.00;;;19.10;88.00;;;;;;5010214;28;20048;-68
2023/08/12 02:36:26;;;;;;;0.00;0.00;;;19.20;88.00;;;;;;5010270;28;20058;-68
2023/08/12 02:38:52;;;;;;;0.00;0.00;;;19.20;88.00;;;;;;5009599;28;20121;-68
2023/08/12 02:41:17;;;;;;;0.08;0.08;;;19.20;88.10;;;;;;5009382;28;20444;-68
2023/08/12 02:43:43;;;;;;;0.00;0.00;;;19.20;88.10;;;;;;5010280;28;20395;-68
2023/08/12 02:46:08;;;;;;;0.00;0.00;;;19.20;88.10;;;;;;5009379;28;20113;-68
2023/08/12 02:48:35;;;;;;;0.00;0.00;;;19.20;88.00;;;;;;5009877;28;20447;-68
2023/08/12 02:51:01;;;;;;;0.00;0.00;;;19.20;88.00;;;;;;5009335;28;20046;-68
2023/08/12 02:53:27;;;;;;;0.00;0.00;;;19.30;87.90;;;;;;5010053;28;20410;-68
2023/08/12 02:55:52;;;;;;;0.00;0.00;;;19.20;88.10;;;;;;5009663;28;20100;-68
2023/08/12 02:58:18;;;;;;;0.00;0.00;;;19.30;88.10;;;;;;5009950;28;20046;-68
2023/08/12 03:00:44;;;;;;;0.00;0.00;;;19.30;88.00;;;;;;5009237;28;20100;-68
2023/08/12 03:03:10;;;;;;;0.00;0.00;;;19.30;87.90;;;;;;5009888;28;20137;-68
2023/08/12 03:05:36;;;;;;;0.00;0.00;;;19.30;88.00;;;;;;5010242;28;20052;-68
2023/08/12 03:08:03;;;;;;;0.00;0.00;;;19.20;87.90;;;;;;5009534;28;20050;-68
2023/08/12 03:10:29;;;;;;;0.00;0.00;;;19.30;88.10;;;;;;5009163;28;20038;-68
2023/08/12 03:12:55;;;;;;;0.00;0.00;;;19.30;88.30;;;;;;5009682;28;20549;-69
2023/08/12 03:15:20;;;;;;;0.00;0.00;;;19.30;88.40;;;;;;5009792;28;20084;-68
2023/08/12 03:17:46;;;;;;;0.00;0.00;;;19.20;88.40;;;;;;5008978;28;20065;-68
2023/08/12 03:20:12;;;;;;;0.00;0.00;;;19.20;88.40;;;;;;5008488;28;20050;-67
2023/08/12 03:22:37;;;;;;;0.00;0.00;;;19.30;88.50;;;;;;5008087;28;20463;-68
2023/08/12 03:25:04;;;;;;;0.00;0.00;;;19.30;88.50;;;;;;5007784;28;20037;-68
2023/08/12 03:27:30;;;;;;;0.00;0.00;;;19.20;88.50;;;;;;5007132;28;20141;-67
2023/08/12 03:29:56;;;;;;;0.00;0.00;;;19.30;88.50;;;;;;5008122;28;20653;-68
2023/08/12 03:32:21;;;;;;;0.00;0.00;;;19.30;88.50;;;;;;5008788;28;20141;-69
2023/08/12 03:34:47;;;;;;;0.00;0.00;;;19.20;88.60;;;;;;5006770;28;20088;-68
2023/08/12 03:37:12;;;;;;;0.00;0.00;;;19.20;88.60;;;;;;5008742;28;20061;-68
2023/08/12 03:39:38;;;;;;;0.00;0.00;;;19.20;88.40;;;;;;5008484;28;20494;-70
2023/08/12 03:42:04;;;;;;;0.08;0.08;;;19.20;88.30;;;;;;5008496;28;20148;-68
2023/08/12 03:44:29;;;;;;;0.00;0.00;;;19.20;88.20;;;;;;5008449;28;20100;-68
2023/08/12 03:46:55;;;;;;;0.00;0.00;;;19.20;88.10;;;;;;5008251;28;20427;-68
2023/08/12 03:49:20;;;;;;;0.00;0.00;;;19.20;88.30;;;;;;5007892;28;20690;-68
2023/08/12 03:51:46;;;;;;;0.00;0.00;;;19.20;88.40;;;;;;5007614;28;20148;-68
2023/08/12 03:54:11;;;;;;;0.00;0.00;;;19.20;88.60;;;;;;5008178;28;20080;-68
2023/08/12 03:56:37;;;;;;;0.00;0.00;;;19.20;88.50;;;;;;5007975;28;20045;-68
2023/08/12 03:59:02;;;;;;;0.00;0.00;;;19.20;88.30;;;;;;5007963;28;20107;-68
2023/08/12 04:01:28;;;;;;;0.00;0.00;;;19.20;88.40;;;;;;5006794;28;20418;-68
2023/08/12 04:03:53;;;;;;;0.00;0.00;;;19.20;88.40;;;;;;5008236;28;20042;-68
2023/08/12 04:06:19;;;;;;;0.00;0.00;;;19.20;88.30;;;;;;5008390;28;20446;-68
2023/08/12 04:08:44;;;;;;;0.00;0.00;;;19.30;88.50;;;;;;5008292;28;20486;-68
2023/08/12 04:11:10;;;;;;;0.00;0.00;;;19.20;88.50;;;;;;5008148;28;20053;-68
2023/08/12 04:13:35;;;;;;;0.75;0.75;;;19.30;88.80;;;;;;5008083;28;20050;-69
2023/08/12 04:16:01;;;;;;;0.00;0.00;;;19.20;88.70;;;;;;5007909;28;20042;-68
2023/08/12 04:18:27;;;;;;;0.10;0.10;;;19.20;88.70;;;;;;4972776;28;1041908;-68
2023/08/12 04:20:53;;;;;;;0.00;0.00;;;19.20;88.70;;;;;;5008210;28;20062;-68
2023/08/12 04:23:19;;;;;;;0.00;0.00;;;19.20;88.80;;;;;;5009126;28;20092;-68
2023/08/12 04:25:49;;;;;;;0.03;0.03;;;19.20;88.70;;;;;;5008682;28;20073;-68
2023/08/12 04:28:15;;;;;;;0.00;0.00;;;19.30;88.70;;;;;;5009202;28;20049;-68
2023/08/12 04:30:46;;;;;;;0.00;0.00;;;19.30;88.80;;;;;;5010158;28;20052;-68
2023/08/12 04:33:12;;;;;;;0.00;0.00;;;19.30;88.80;;;;;;5012404;28;20092;-68
2023/08/12 04:35:39;;;;;;;0.00;0.00;;;19.30;88.80;;;;;;5011765;28;20050;-68
2023/08/12 04:38:08;;;;;;;0.00;0.00;;;19.30;88.80;;;;;;5012323;28;20388;-69
2023/08/12 04:40:46;;;;;;;0.00;0.00;;;19.30;89.00;;;;;;5012368;28;20042;-68
2023/08/12 04:43:13;;;;;;;0.00;0.00;;;19.30;88.90;;;;;;5012358;28;20053;-68
2023/08/12 04:45:38;;;;;;;0.00;0.00;;;19.30;89.10;;;;;;5010589;28;20050;-68
2023/08/12 04:48:08;;;;;;;0.00;0.00;;;19.40;89.10;;;;;;5011947;28;20124;-68
2023/08/12 04:50:34;;;;;;;0.00;0.00;;;19.40;89.10;;;;;;5010619;28;20141;-68
2023/08/12 04:53:00;;;;;;;0.00;0.00;;;19.40;89.10;;;;;;5010782;28;20064;-68
2023/08/12 04:55:26;;;;;;;0.00;0.00;;;19.40;89.10;;;;;;5011687;28;20675;-68
2023/08/12 04:57:54;;;;;;;0.00;0.00;;;19.50;89.10;;;;;;5011912;28;20526;-69
2023/08/12 05:00:20;;;;;;;0.00;0.00;;;19.50;89.20;;;;;;5011474;28;20438;-68
2023/08/12 05:02:45;;;;;;;0.00;0.00;;;19.50;89.30;;;;;;5011881;28;20050;-68
2023/08/12 05:05:11;;;;;;;0.00;0.00;;;19.60;89.30;;;;;;5011954;28;20073;-68
2023/08/12 05:07:36;;;;;;;0.00;0.00;;;19.60;89.40;;;;;;5010797;28;20046;-68
2023/08/12 05:10:05;;;;;;;0.00;0.00;;;19.60;89.50;;;;;;5011504;28;20046;-68
2023/08/12 05:12:37;;;;;;;0.00;0.00;;;19.60;89.50;;;;;;4990831;28;20062;-69
2023/08/12 05:15:09;;;;;;;0.00;0.00;;;19.70;89.40;;;;;;4992139;28;20082;-68
2023/08/12 05:17:38;;;;;;;0.00;0.00;;;19.80;89.30;;;;;;4991882;28;20137;-68
2023/08/12 05:20:08;;;;;;;0.00;0.00;;;19.80;89.50;;;;;;4993837;28;20547;-68
2023/08/12 05:22:34;;;;;;;0.00;0.00;;;19.80;89.40;;;;;;5011587;28;20561;-68
2023/08/12 05:24:59;;;;;;;0.00;0.00;;;19.80;89.30;;;;;;4994326;28;20050;-68
2023/08/12 05:27:25;;;;;;;0.00;0.00;;;19.80;89.30;;;;;;5011461;28;20144;-68
2023/08/12 05:29:51;;;;;;;0.00;0.00;;;19.80;89.30;;;;;;5010269;28;20473;-68
2023/08/12 05:32:16;;;;;;;0.00;0.00;;;19.80;89.30;;;;;;5011005;28;20053;-68
2023/08/12 05:34:42;;;;;;;0.00;0.00;;;19.80;89.30;;;;;;5009361;28;20053;-68
2023/08/12 05:37:07;;;;;;;0.00;0.00;;;19.80;89.30;;;;;;5011243;28;20056;-69
2023/08/12 05:39:33;;;;;;;0.03;0.03;;;19.90;89.30;;;;;;5011432;28;20053;-69
2023/08/12 05:41:58;;;;;;;0.00;0.00;;;19.80;89.30;;;;;;5010210;28;20073;-67
2023/08/12 05:44:24;;;;;;;0.00;0.00;;;19.90;89.20;;;;;;5010664;28;20046;-68
2023/08/12 05:46:49;;;;;;;0.00;0.00;;;19.80;89.10;;;;;;5010600;28;20042;-69
2023/08/12 05:49:18;;;;;;;0.00;0.00;;;19.90;89.20;;;;;;5011352;28;20604;-68
2023/08/12 05:51:44;;;;;;;0.00;0.00;;;19.90;89.00;;;;;;5009979;28;20053;-67
2023/08/12 05:54:09;;;;;;;0.00;0.00;;;19.90;89.10;;;;;;5010986;28;20045;-67
2023/08/12 05:56:35;;;;;;;0.00;0.00;;;19.90;89.10;;;;;;5009249;28;20045;-68
2023/08/12 05:59:00;;;;;;;0.00;0.00;;;19.90;89.20;;;;;;5010642;28;20438;-68
2023/08/12 06:01:26;;;;;;;0.00;0.00;;;19.90;89.20;;;;;;5007522;28;20108;-68
2023/08/12 06:03:51;;;;;;;0.00;0.00;;;19.90;89.20;;;;;;5010091;28;20517;-68
2023/08/12 06:06:17;;;;;;;0.00;0.00;;;19.90;89.20;;;;;;5008334;28;20038;-68
2023/08/12 06:08:43;;;;;;;0.00;0.00;;;19.90;89.30;;;;;;5010255;28;20096;-69
2023/08/12 06:11:08;;;;;;;0.00;0.00;;;19.80;89.20;;;;;;5010002;28;20534;-68
2023/08/12 06:13:34;;;;;;;0.00;0.00;;;19.80;89.20;;;;;;5007919;28;20120;-68
2023/08/12 06:15:59;;;;;;;0.00;0.00;;;19.90;89.30;;;;;;5008891;28;20494;-68
2023/08/12 06:18:28;;;;;;;0.00;0.00;;;19.90;89.30;;;;;;5008989;28;20062;-68
2023/08/12 06:21:03;;;;;;;0.25;0.25;;;19.90;89.20;;;;;;4996032;28;20140;-68
2023/08/12 06:23:29;;;;;;;0.00;0.00;;;20.00;89.20;;;;;;5008711;28;20034;-68
2023/08/12 06:25:55;;;;;;;0.00;0.00;;;20.00;89.30;;;;;;5009413;28;20042;-68
2023/08/12 06:28:20;;;;;;;0.00;0.00;;;20.00;89.30;;;;;;5009103;28;20049;-68
2023/08/12 06:30:48;;;;;;;0.00;0.00;;;20.00;89.30;;;;;;5009863;28;20677;-67
2023/08/12 06:33:14;;;;;;;0.00;0.00;;;20.00;89.10;;;;;;5010278;28;20054;-68
2023/08/12 06:35:40;;;;;;;0.00;0.00;;;20.00;89.20;;;;;;5009711;28;20045;-68
2023/08/12 06:38:06;;;;;;;0.00;0.00;;;20.00;89.10;;;;;;5009940;28;20034;-68
2023/08/12 06:40:31;;;;;;;0.00;0.00;;;20.00;89.10;;;;;;5008922;28;20470;-68
2023/08/12 06:43:07;;;;;;;0.00;0.00;;;20.00;89.30;;;;;;5010375;28;20081;-69
2023/08/12 06:45:36;;;;;;;0.00;0.00;;;20.00;89.40;;;;;;5008702;28;20045;-68
2023/08/12 06:48:07;;;;;;;0.00;0.00;;;20.10;89.30;;;;;;5010280;28;20077;-68
2023/08/12 06:50:33;;;;;;;0.00;0.00;;;20.10;89.20;;;;;;5008474;28;20041;-68
2023/08/12 06:52:59;;;;;;;0.00;0.00;;;20.10;89.20;;;;;;4992475;28;20049;-67
2023/08/12 06:55:24;;;;;;;0.00;0.00;;;20.10;89.30;;;;;;5007427;28;20041;-68
2023/08/12 06:57:53;;;;;;;0.00;0.00;;;20.10;89.40;;;;;;4995368;28;20705;-68
2023/08/12 07:00:19;;;;;;;0.00;0.00;;;20.10;89.60;;;;;;5003382;23;20121;-66
2023/08/12 07:02:45;;;;;;;0.00;0.00;;;20.20;89.60;;;;;;5033681;28;20486;-74
2023/08/12 07:05:11;;;;;;;0.03;0.03;;;20.20;89.40;;;;;;5035253;28;20059;-74
2023/08/12 07:07:36;;;;;;;0.00;0.00;;;20.20;89.40;;;;;;5016864;28;20140;-66
2023/08/12 07:10:04;;;;;;;0.00;0.00;;;20.30;89.30;;;;;;5039353;28;20127;-67
2023/08/12 07:12:30;;;;;;;0.00;0.00;;;20.20;89.20;;;;;;5044991;28;20056;-66
2023/08/12 07:14:55;;;;;;;0.00;0.00;;;20.30;89.20;;;;;;5022821;28;20041;-67
2023/08/12 07:17:21;;;;;;;0.00;0.00;;;20.30;89.30;;;;;;5047122;28;20083;-67
2023/08/12 07:19:47;;;;;;;0.00;0.00;;;20.40;89.50;;;;;;5044831;28;20398;-67
2023/08/12 07:22:13;;;;;;;0.00;0.00;;;20.40;89.40;;;;;;5037373;28;20087;-66
2023/08/12 07:24:38;;;;;;;0.68;0.35;;;20.40;89.90;;;;;;5038292;28;20072;-66
2023/08/12 07:27:04;;;;;;;0.00;0.00;;;20.40;89.70;;;;;;5047277;28;20052;-67
2023/08/12 07:29:29;;;;;;;0.00;0.00;;;20.40;89.40;;;;;;5039559;28;20111;-66
2023/08/12 07:31:56;;;;;;;0.00;0.00;;;20.40;89.40;;;;;;5036228;28;20052;-65
2023/08/12 07:34:21;;;;;;;0.40;0.20;;;20.40;89.30;;;;;;5041520;28;20048;-66
2023/08/12 07:36:47;;;;;;;0.00;0.00;;;20.40;89.30;;;;;;5048231;28;20494;-67
2023/08/12 07:39:12;;;;;;;0.10;0.10;;;20.40;89.30;;;;;;5047611;28;20501;-65
2023/08/12 07:41:38;;;;;;;0.00;0.00;;;20.40;89.40;;;;;;5044795;28;20137;-67
2023/08/12 07:44:04;;;;;;;0.00;0.00;;;20.40;89.30;;;;;;5030405;28;20132;-66
2023/08/12 07:46:33;;;;;;;0.00;0.00;;;20.40;89.30;;;;;;5046775;28;20678;-67
2023/08/12 07:48:59;;;;;;;0.00;0.00;;;20.40;89.20;;;;;;5047061;28;20044;-67
2023/08/12 07:51:24;;;;;;;0.00;0.00;;;20.40;89.20;;;;;;5046761;28;20128;-67
2023/08/12 07:53:50;;;;;;;0.00;0.00;;;20.40;89.30;;;;;;5038127;28;20154;-67
2023/08/12 07:56:19;;;;;;;0.00;0.00;;;20.40;89.20;;;;;;5029095;28;20124;-68
2023/08/12 07:58:45;;;;;;;0.00;0.00;;;20.40;89.30;;;;;;5035562;28;20124;-67
2023/08/12 08:01:11;;;;;;;0.00;0.00;;;20.50;89.30;;;;;;5040749;28;20119;-68
2023/08/12 08:03:37;;;;;;;0.00;0.00;;;20.40;89.30;;;;;;5035569;28;20196;-66
2023/08/12 08:06:04;;;;;;;0.10;0.10;;;20.40;89.40;;;;;;5044631;28;20065;-66
2023/08/12 08:08:35;;;;;;;0.00;0.00;;;20.50;89.60;;;;;;5040840;28;20060;-67
2023/08/12 08:11:01;;;;;;;0.00;0.00;;;20.40;89.80;;;;;;5049880;28;20126;-66
2023/08/12 08:13:27;;;;;;;0.10;0.10;;;20.50;89.80;;;;;;5024909;28;20049;-68
2023/08/12 08:15:53;;;;;;;0.00;0.00;;;20.50;89.70;;;;;;5032922;28;20131;-67
2023/08/12 08:18:19;;;;;;;0.00;0.00;;;20.50;89.70;;;;;;5051652;28;20088;-67
2023/08/12 08:20:45;;;;;;;0.28;0.28;;;20.40;89.80;;;;;;5049532;28;20137;-67
2023/08/12 08:23:11;;;;;;;0.25;0.25;;;20.40;90.10;;;;;;5044719;28;20191;-67
2023/08/12 08:25:39;;;;;;;0.00;0.00;;;20.40;90.00;;;;;;5050583;28;20052;-67
2023/08/12 08:28:05;;;;;;;0.00;0.00;;;20.40;90.00;;;;;;5051639;28;20311;-66
2023/08/12 08:30:31;;;;;;;0.00;0.00;;;20.30;90.00;;;;;;5050148;28;20472;-67
2023/08/12 08:32:56;;;;;;;0.00;0.00;;;20.40;90.10;;;;;;5047210;28;20111;-67
2023/08/12 08:35:28;;;;;;;0.00;0.00;;;20.30;90.00;;;;;;5038917;28;20107;-67
2023/08/12 08:37:59;;;;;;;0.00;0.00;;;20.40;90.10;;;;;;5035808;28;20401;-67
2023/08/12 08:40:25;;;;;;;;;;;20.40;90.10;;;;;;5036779;28;20061;-68
2023/08/12 08:43:03;;;;;;;0.00;0.00;;;20.40;90.10;;;;;;5036266;28;19924;-68
2023/08/12 08:45:32;;;;;;;0.00;0.00;;;20.50;90.10;;;;;;5020495;28;20053;-68
2023/08/12 08:48:00;;;;;;;0.00;0.00;;;20.50;90.20;;;;;;5041531;28;20080;-68
2023/08/12 08:50:55;;;;;;;0.00;0.00;;;20.50;90.40;;;;;;5004652;28;20061;-72
2023/08/12 08:53:27;;;;;;;0.00;0.00;;;20.50;90.50;;;;;;4927165;28;20078;-67
2023/08/12 08:56:11;;;;;;;;;;;20.60;90.70;;;;;;4946986;28;20051;-67
2023/08/12 08:58:52;;;;;;;0.00;0.00;;;20.60;90.70;;;;;;5024804;28;20406;-67
2023/08/12 09:01:22;;;;;;;0.00;0.00;;;20.60;90.70;;;;;;5036834;28;20049;-67
2023/08/12 09:03:58;;;;;;;0.10;0.10;;;20.60;90.60;;;;;;5032802;28;20045;-67
2023/08/12 09:06:29;;;;;;;0.00;0.00;;;20.60;90.50;;;;;;5033426;28;20057;-67
2023/08/12 09:08:58;;;;;;;0.00;0.00;;;20.60;90.60;;;;;;5038562;28;20049;-68
2023/08/12 09:11:24;;;;;;;0.00;0.00;;;20.60;90.80;;;;;;5039368;28;20052;-67
2023/08/12 09:13:52;;;;;;;0.00;0.00;;;20.50;90.70;;;;;;5034227;28;20127;-68
2023/08/12 09:16:21;;;;;;;0.00;0.00;;;20.60;90.70;;;;;;5018149;28;20363;-67
2023/08/12 09:18:47;;;;;;;0.00;0.00;;;20.60;90.90;;;;;;5031871;28;20504;-68
2023/08/12 09:21:12;;;;;;;0.10;0.10;;;20.60;91.00;;;;;;5033408;28;20096;-67
2023/08/12 09:23:42;;;;;;;0.00;0.00;;;20.60;91.00;;;;;;5036287;28;20068;-67
2023/08/12 09:26:14;;;;;;;0.10;0.10;;;20.60;91.10;;;;;;5031827;28;20073;-67
2023/08/12 09:28:40;;;;;;;0.47;0.47;;;20.60;91.30;;;;;;5040121;28;20041;-66
2023/08/12 09:31:06;;;;;;;0.00;0.00;;;20.50;91.40;;;;;;5037368;28;20410;-67
2023/08/12 09:33:39;;;;;;;0.00;0.00;;;20.60;91.30;;;;;;5033661;28;20053;-67
2023/08/12 09:36:04;;;;;;;0.00;0.00;;;20.60;91.30;;;;;;5046238;28;20072;-67
2023/08/12 09:38:31;;;;;;;0.00;0.00;;;20.60;91.30;;;;;;5041708;28;20451;-67
2023/08/12 09:40:56;;;;;;;0.00;0.00;;;20.60;91.30;;;;;;5038417;28;20079;-67
2023/08/12 09:43:27;;;;;;;0.00;0.00;;;20.60;91.30;;;;;;5039279;28;20400;-67
2023/08/12 09:45:57;;;;;;;0.00;0.00;;;20.50;91.40;;;;;;5034372;28;20063;-67
2023/08/12 09:48:23;;;;;;;0.10;0.10;;;20.50;91.40;;;;;;5024753;28;20494;-67
2023/08/12 09:50:50;;;;;;;0.20;0.10;;;20.50;91.40;;;;;;5032378;28;20053;-67
2023/08/12 09:53:16;;;;;;;0.00;0.00;;;20.40;91.50;;;;;;5036269;28;20049;-66
2023/08/12 09:55:43;;;;;;;0.00;0.00;;;20.50;91.50;;;;;;5036290;28;20791;-67
2023/08/12 09:58:14;;;;;;;0.00;0.00;;;20.50;91.40;;;;;;5032481;28;20046;-67
2023/08/12 10:00:42;;;;;;;0.00;0.00;;;20.10;89.50;;;;;;5014417;28;20068;-67
2023/08/12 10:03:10;;;;;;;0.00;0.00;;;19.60;89.20;;;;;;5034969;28;20056;-66
2023/08/12 10:05:37;;;;;;;0.00;0.00;;;19.30;89.10;;;;;;5033797;28;20168;-67
2023/08/12 10:08:04;;;;;;;0.00;0.00;;;19.10;89.40;;;;;;5026675;28;20405;-67
2023/08/12 10:10:35;;;;;;;0.10;0.10;;;19.00;89.40;;;;;;5034292;28;20053;-67
2023/08/12 10:13:01;;;;;;;0.00;0.00;;;18.60;87.80;;;;;;5037841;28;20505;-67
2023/08/12 10:15:27;;;;;;;0.00;0.00;;;18.30;88.40;;;;;;5019733;28;20057;-67
2023/08/12 10:17:53;;;;;;;0.00;0.00;;;18.10;87.90;;;;;;5034462;28;20041;-66
2023/08/12 10:20:24;;;;;;;0.00;0.00;;;18.00;88.40;;;;;;5033617;28;20061;-66
2023/08/12 10:22:51;;;;;;;0.00;0.00;;;18.00;88.90;;;;;;5035048;28;20095;-66
2023/08/12 10:25:19;;;;;;;0.00;0.00;;;18.00;89.00;;;;;;5039641;28;20518;-66
2023/08/12 10:27:45;;;;;;;0.00;0.00;;;17.90;89.10;;;;;;5033937;28;20108;-65
2023/08/12 10:30:12;;;;;;;0.00;0.00;;;17.80;89.40;;;;;;5034511;28;20049;-66
2023/08/12 10:32:39;;;;;;;0.00;0.00;;;17.80;89.50;;;;;;5042635;28;20057;-67
2023/08/12 10:35:05;;;;;;;0.00;0.00;;;17.80;89.60;;;;;;5045843;28;20365;-67
2023/08/12 10:37:42;;;;;;;0.00;0.00;;;17.80;89.80;;;;;;5031578;28;20053;-66
2023/08/12 10:40:21;;;;;;;0.00;0.00;;;17.90;90.30;;;;;;5032304;28;20045;-66
2023/08/12 10:42:47;;;;;;;0.00;0.00;;;18.00;90.20;;;;;;5036603;28;20044;-66
2023/08/12 10:45:20;;;;;;;0.00;0.00;;;18.00;90.30;;;;;;5045756;28;20115;-66
2023/08/12 10:48:09;;;;;;;0.00;0.00;;;18.10;90.50;;;;;;5046042;28;20044;-66
2023/08/12 10:50:35;;;;;;;0.00;0.00;;;18.10;90.60;;;;;;5014441;28;20399;-66
2023/08/12 10:53:48;;;;;;;0.00;0.00;;;18.20;90.60;;;;;;5018736;28;20053;-66
2023/08/12 10:56:14;;;;;;;0.00;0.00;;;18.20;90.60;;;;;;4997473;28;20065;-66
2023/08/12 10:58:47;;;;;;;0.00;0.00;;;18.20;90.60;;;;;;5032955;28;20118;-67
2023/08/12 11:01:32;;;;;;;0.00;0.00;;;18.20;90.70;;;;;;5030333;28;20044;-66
2023/08/12 11:04:30;;;;;;;0.00;0.00;;;18.30;90.60;;;;;;5032003;28;20111;-67
2023/08/12 11:06:56;;;;;;;0.00;0.00;;;18.30;90.30;;;;;;4968657;28;20080;-68
2023/08/12 11:09:27;;;;;;;0.03;0.03;;;18.30;90.50;;;;;;5036978;28;20483;-68
2023/08/12 11:12:02;;;;;;;0.00;0.00;;;18.30;90.50;;;;;;5030023;28;20139;-69
2023/08/12 11:14:27;;;;;;;0.00;0.00;;;18.30;90.50;;;;;;5037547;28;20044;-70
2023/08/12 11:16:53;;;;;;;0.00;0.00;;;18.40;90.60;;;;;;5040182;28;20041;-66
2023/08/12 11:19:19;;;;;;;0.00;0.00;;;18.50;90.60;;;;;;5032712;28;20072;-66
2023/08/12 11:21:45;;;;;;;0.00;0.00;;;18.50;90.50;;;;;;5032116;28;20085;-69
2023/08/12 11:24:11;;;;;;;0.00;0.00;;;18.60;90.50;;;;;;5035463;28;20041;-69
2023/08/12 11:26:37;;;;;;;0.00;0.00;;;18.60;90.40;;;;;;5029655;28;20049;-69
2023/08/12 11:29:11;;;;;;;0.00;0.00;;;18.60;90.40;;;;;;5036337;28;20482;-69
2023/08/12 11:31:36;;;;;;;0.00;0.00;;;18.60;90.40;;;;;;5011663;28;20183;-69
2023/08/12 11:34:04;;;;;;;0.00;0.00;;;18.60;90.70;;;;;;5029520;28;20750;-68
2023/08/12 11:36:42;;;;;;;0.00;0.00;;;18.60;90.80;;;;;;5027981;28;20100;-68
2023/08/12 11:39:10;;;;;;;0.00;0.00;;;18.60;90.70;;;;;;5039389;28;21581;-69
2023/08/12 11:41:45;;;;;;;0.00;0.00;;;18.70;90.70;;;;;;5030786;28;20053;-69
2023/08/12 11:44:22;;;;;;;0.00;0.00;;;18.70;90.70;;;;;;5035723;28;20143;-68
2023/08/12 11:46:51;;;;;;;0.00;0.00;;;18.80;90.70;;;;;;5035106;28;20111;-70
2023/08/12 11:49:25;;;;;;;0.47;0.43;;;18.80;90.10;;;;;;5024653;28;20056;-69
2023/08/12 11:51:54;;;;;;;0.00;0.00;;;18.80;88.30;;;;;;5044875;28;20049;-68
2023/08/12 11:54:23;;;;;;;0.00;0.00;;;18.90;87.30;;;;;;5029033;28;20127;-67
2023/08/12 11:56:56;;;;;;;0.25;0.25;;;19.00;87.50;;;;;;5047751;28;20620;-68
2023/08/12 11:59:28;;;;;;;0.00;0.00;;;19.10;87.20;;;;;;5047890;28;20045;-68
2023/08/12 12:01:56;;;;;;;;;;;19.20;87.20;;;;;;5047502;28;20048;-68
2023/08/12 12:04:22;;;;;;;0.00;0.00;;;19.30;86.00;;;;;;5048175;28;19969;-68
2023/08/12 12:06:51;;;;;;;0.00;0.00;;;19.40;85.40;;;;;;5047727;28;20401;-68
2023/08/12 12:09:20;;;;;;;0.43;0.43;;;19.60;85.60;;;;;;5046262;28;20049;-68
2023/08/12 12:11:46;;;;;;;0.00;0.00;;;19.60;85.70;;;;;;5047467;28;20041;-68
2023/08/12 12:14:11;;;;;;;0.00;0.00;;;19.70;84.70;;;;;;5028314;28;20045;-68
2023/08/12 12:16:50;;;;;;;0.38;0.38;;;19.90;84.20;;;;;;5028159;28;20491;-68
2023/08/12 12:19:21;;;;;;;1.30;1.20;;;20.10;84.90;;;;;;5020567;28;20056;-69
2023/08/12 12:21:49;;;;;;;0.00;0.00;;;20.20;84.10;;;;;;5048238;28;20045;-68
2023/08/12 12:24:23;;;;;;;0.00;0.00;;;20.40;83.40;;;;;;5048933;28;20489;-68
2023/08/12 12:26:52;;;;;;;0.00;0.00;;;20.50;82.90;;;;;;5059026;28;20056;-68
2023/08/12 12:29:21;;;;;;;0.00;0.00;;;20.70;83.60;;;;;;5030648;28;20072;-68
2023/08/12 12:31:53;;;;;;;0.00;0.00;;;20.80;82.80;;;;;;5062007;28;20052;-68
2023/08/12 12:34:24;;;;;;;0.00;0.00;;;20.90;81.60;;;;;;5067535;28;20087;-68
2023/08/12 12:36:49;;;;;;;0.00;0.00;;;21.10;81.60;;;;;;5067961;28;20562;-68
2023/08/12 12:39:18;;;;;;;0.00;0.00;;;21.10;81.40;;;;;;5067479;28;20119;-68
2023/08/12 12:41:47;;;;;;;0.00;0.00;;;21.20;81.60;;;;;;5067824;28;20060;-68
2023/08/12 12:44:15;;;;;;;0.00;0.00;;;21.30;81.80;;;;;;5050776;28;20044;-68
2023/08/12 12:46:40;;;;;;;0.00;0.00;;;21.40;81.30;;;;;;5047812;28;20052;-68
2023/08/12 12:49:09;;;;;;;0.05;0.05;;;21.50;79.30;;;;;;5047656;28;20075;-68
2023/08/12 12:51:34;;;;;;;0.10;0.10;;;21.60;79.70;;;;;;5048401;28;20529;-68